Time;durP1;ratioP1;P1;durP2;ratioP2;P2;SDS_P1;SDS_P2;PMS_P1;PMS_P2;Temp;Humidity;BMP_temperature;BMP_pressure;BME280_temperature;BME280_humidity;BME280_pressure;Samples;Min_cycle;Max_cycle;Signal;HPM_P1;HPM_P2
2022/07/22 04:01:55;;;;;;;4.30;3.77;;;17.30;99.90;;;;;;5299975;23;20523;-69
2022/07/22 04:04:22;;;;;;;3.60;3.10;;;17.30;99.90;;;;;;5007062;28;20491;-68
2022/07/22 04:06:51;;;;;;;3.80;3.50;;;17.30;99.90;;;;;;5009072;28;20491;-69
2022/07/22 04:09:17;;;;;;;4.13;3.03;;;17.30;99.90;;;;;;5008817;28;20469;-69
2022/07/22 04:11:44;;;;;;;4.43;4.20;;;17.30;99.90;;;;;;5001399;28;20477;-69
2022/07/22 04:14:11;;;;;;;3.20;3.00;;;17.30;99.90;;;;;;5006655;28;20468;-69
2022/07/22 04:16:38;;;;;;;7.40;3.30;;;17.30;99.90;;;;;;4998943;28;20479;-68
2022/07/22 04:19:06;;;;;;;3.70;3.50;;;17.40;99.90;;;;;;5000655;28;20546;-67
2022/07/22 04:21:32;;;;;;;3.17;2.70;;;17.40;99.90;;;;;;5008462;28;20514;-67
2022/07/22 04:23:59;;;;;;;3.17;3.00;;;17.40;99.90;;;;;;5011077;28;21038;-67
2022/07/22 04:26:25;;;;;;;3.47;3.37;;;17.40;99.90;;;;;;5005107;28;20469;-67
2022/07/22 04:28:52;;;;;;;2.47;2.47;;;17.40;99.90;;;;;;5003399;28;20480;-67
2022/07/22 04:31:19;;;;;;;3.70;3.37;;;17.40;99.90;;;;;;5005169;28;20494;-68
2022/07/22 04:33:45;;;;;;;3.40;2.80;;;17.40;99.90;;;;;;5008493;28;20468;-67
2022/07/22 04:36:13;;;;;;;3.20;2.40;;;17.40;99.90;;;;;;4997016;28;20476;-67
2022/07/22 04:38:40;;;;;;;3.90;3.60;;;17.40;99.90;;;;;;5003775;28;20464;-67
2022/07/22 04:41:07;;;;;;;4.00;3.27;;;17.30;99.90;;;;;;5002998;28;20587;-67
2022/07/22 04:43:34;;;;;;;3.77;3.43;;;17.40;99.90;;;;;;5004826;28;20543;-67
2022/07/22 04:46:01;;;;;;;3.63;3.33;;;17.40;99.90;;;;;;5007171;28;20759;-68
2022/07/22 04:48:27;;;;;;;4.40;4.10;;;17.40;99.90;;;;;;5006178;28;20470;-67
2022/07/22 04:50:54;;;;;;;4.07;3.73;;;17.40;99.90;;;;;;5007734;28;20483;-67
2022/07/22 04:53:22;;;;;;;4.10;3.70;;;17.30;99.90;;;;;;5010950;28;20460;-67
2022/07/22 04:55:49;;;;;;;4.17;3.97;;;17.30;99.90;;;;;;5000694;28;21029;-67
2022/07/22 04:58:15;;;;;;;4.63;3.50;;;17.30;99.90;;;;;;5008437;28;20567;-67
2022/07/22 05:00:42;;;;;;;6.47;4.13;;;17.30;99.90;;;;;;5006738;28;20549;-67
2022/07/22 05:03:09;;;;;;;4.53;4.13;;;17.30;99.90;;;;;;5003048;28;20488;-67
2022/07/22 05:05:36;;;;;;;4.17;3.87;;;17.30;99.90;;;;;;4995986;28;20681;-67
2022/07/22 05:08:02;;;;;;;4.57;4.17;;;17.30;99.90;;;;;;5004375;28;20855;-67
2022/07/22 05:10:31;;;;;;;7.13;4.50;;;17.30;99.90;;;;;;5010827;28;20480;-66
2022/07/22 05:12:58;;;;;;;4.93;4.33;;;17.40;99.90;;;;;;5011003;28;20476;-67
2022/07/22 05:15:25;;;;;;;5.10;4.70;;;17.40;99.90;;;;;;5008815;28;20499;-68
2022/07/22 05:17:52;;;;;;;4.80;4.37;;;17.40;99.90;;;;;;5004435;28;20573;-68
2022/07/22 05:20:19;;;;;;;4.60;4.20;;;17.40;99.90;;;;;;5009756;28;20474;-66
2022/07/22 05:22:45;;;;;;;5.40;4.17;;;17.30;99.90;;;;;;5006504;28;20461;-67
2022/07/22 05:25:12;;;;;;;10.13;4.77;;;17.40;99.90;;;;;;4996408;28;20533;-66
2022/07/22 05:27:50;;;;;;;5.27;4.20;;;17.40;99.90;;;;;;5010376;28;20564;-67
2022/07/22 05:30:17;;;;;;;6.70;4.43;;;17.50;99.90;;;;;;5007965;28;20468;-67
2022/07/22 05:32:44;;;;;;;5.80;3.73;;;17.50;99.90;;;;;;5009439;28;20463;-67
2022/07/22 05:35:10;;;;;;;4.13;3.83;;;17.50;99.90;;;;;;5011613;28;20468;-67
2022/07/22 05:37:37;;;;;;;4.10;3.40;;;17.50;99.90;;;;;;5009791;28;20466;-67
2022/07/22 05:40:05;;;;;;;5.80;3.33;;;17.50;99.90;;;;;;5010250;28;20464;-66
2022/07/22 05:42:31;;;;;;;4.67;4.23;;;17.60;99.90;;;;;;5010921;28;20499;-67
2022/07/22 05:44:59;;;;;;;3.50;3.30;;;17.70;99.90;;;;;;5011520;28;20480;-67
2022/07/22 05:47:26;;;;;;;3.50;3.23;;;17.70;99.90;;;;;;5000671;28;20952;-67
2022/07/22 05:49:53;;;;;;;6.27;4.03;;;17.70;99.90;;;;;;5001280;28;20473;-67
2022/07/22 05:52:19;;;;;;;3.60;3.40;;;17.70;99.90;;;;;;5000339;28;20979;-68
2022/07/22 05:54:46;;;;;;;3.73;3.50;;;17.70;99.90;;;;;;5010959;28;20574;-67
2022/07/22 05:57:13;;;;;;;3.43;2.83;;;17.80;99.90;;;;;;5010889;28;20478;-67
2022/07/22 05:59:40;;;;;;;4.40;3.07;;;17.80;99.90;;;;;;5011243;28;20469;-68
2022/07/22 06:02:09;;;;;;;3.33;3.13;;;17.80;99.90;;;;;;5002136;28;20865;-68
2022/07/22 06:04:35;;;;;;;3.60;3.37;;;17.80;99.90;;;;;;5000454;28;20483;-68
2022/07/22 06:07:02;;;;;;;3.07;2.83;;;17.80;99.90;;;;;;5011895;28;20491;-68
2022/07/22 06:09:29;;;;;;;3.00;2.90;;;17.80;99.90;;;;;;5010158;28;20556;-68
2022/07/22 06:11:55;;;;;;;2.73;2.63;;;17.70;99.90;;;;;;4994155;28;20489;-68
2022/07/22 06:14:22;;;;;;;3.23;3.13;;;17.70;99.90;;;;;;5004618;28;20471;-67
2022/07/22 06:16:49;;;;;;;3.70;2.90;;;17.60;99.90;;;;;;5007150;28;20559;-68
2022/07/22 06:19:17;;;;;;;5.87;2.90;;;17.60;99.90;;;;;;5006068;28;20475;-68
2022/07/22 06:21:43;;;;;;;2.57;2.10;;;17.60;99.90;;;;;;5009047;28;20487;-68
2022/07/22 06:24:10;;;;;;;4.00;2.27;;;17.50;99.90;;;;;;5004589;28;21386;-68
2022/07/22 06:26:37;;;;;;;4.27;2.57;;;17.40;99.90;;;;;;5009010;28;20508;-68
2022/07/22 06:29:04;;;;;;;2.70;2.20;;;17.40;99.90;;;;;;5006189;28;20487;-69
2022/07/22 06:31:30;;;;;;;2.50;2.40;;;17.60;99.90;;;;;;5007924;28;20581;-68
2022/07/22 06:33:57;;;;;;;1.87;1.80;;;17.60;99.90;;;;;;5009887;28;20535;-67
2022/07/22 06:36:25;;;;;;;1.97;1.87;;;17.70;99.90;;;;;;4999697;28;20945;-68
2022/07/22 06:38:51;;;;;;;2.43;2.20;;;17.80;99.90;;;;;;5003030;28;21024;-68
2022/07/22 06:41:19;;;;;;;2.20;2.10;;;17.90;99.90;;;;;;4998921;28;20492;-68
2022/07/22 06:43:45;;;;;;;4.07;2.77;;;17.90;99.90;;;;;;5007351;28;20484;-68
2022/07/22 06:46:12;;;;;;;2.30;2.20;;;18.10;99.90;;;;;;4997623;28;20930;-68
2022/07/22 06:48:39;;;;;;;4.30;2.20;;;18.10;99.90;;;;;;5007891;28;20524;-67
2022/07/22 06:51:06;;;;;;;4.10;2.40;;;18.20;99.90;;;;;;5005349;28;20492;-67
2022/07/22 06:53:34;;;;;;;2.70;2.50;;;18.20;99.90;;;;;;5007113;28;20484;-67
2022/07/22 06:56:01;;;;;;;2.17;2.07;;;18.30;99.90;;;;;;5003966;28;20492;-67
2022/07/22 06:58:28;;;;;;;2.13;2.00;;;18.50;99.90;;;;;;5004049;28;20504;-66
2022/07/22 07:00:54;;;;;;;4.10;2.50;;;18.70;99.90;;;;;;5002133;28;20497;-67
2022/07/22 07:03:21;;;;;;;2.73;2.50;;;19.00;99.90;;;;;;5004019;28;20543;-67
2022/07/22 07:05:48;;;;;;;2.57;2.20;;;19.20;99.90;;;;;;5000090;28;20469;-67
2022/07/22 07:08:15;;;;;;;2.63;2.10;;;19.40;99.90;;;;;;5000895;28;20522;-66
2022/07/22 07:10:43;;;;;;;3.33;2.33;;;19.80;99.90;;;;;;5003836;28;20541;-66
2022/07/22 07:13:09;;;;;;;4.57;3.10;;;20.10;99.90;;;;;;5010653;28;20470;-67
2022/07/22 07:15:36;;;;;;;3.03;2.13;;;20.40;99.90;;;;;;5004490;28;20816;-66
2022/07/22 07:18:03;;;;;;;4.37;1.83;;;20.90;99.90;;;;;;4995633;28;20464;-66
2022/07/22 07:20:30;;;;;;;3.70;2.33;;;21.10;99.90;;;;;;4999807;28;21164;-66
2022/07/22 07:22:56;;;;;;;6.47;2.57;;;21.00;99.90;;;;;;5002615;28;20983;-66
2022/07/22 07:25:23;;;;;;;2.90;2.60;;;21.00;99.90;;;;;;5008517;28;20895;-67
2022/07/22 07:27:51;;;;;;;2.77;2.43;;;20.90;99.90;;;;;;5002248;28;20785;-66
2022/07/22 07:30:18;;;;;;;5.00;2.50;;;20.70;99.90;;;;;;5008995;28;20471;-67
2022/07/22 07:32:45;;;;;;;4.83;2.60;;;20.50;99.90;;;;;;5007929;28;20459;-67
2022/07/22 07:35:11;;;;;;;5.93;2.67;;;20.50;99.90;;;;;;4994517;28;20461;-66
2022/07/22 07:37:38;;;;;;;3.77;2.77;;;20.60;99.90;;;;;;4995607;28;20476;-67
2022/07/22 07:40:06;;;;;;;3.50;3.20;;;21.20;99.90;;;;;;4996405;28;20852;-67
2022/07/22 07:42:33;;;;;;;6.00;2.77;;;21.90;99.90;;;;;;4999608;28;20488;-68
2022/07/22 07:45:01;;;;;;;9.40;3.00;;;21.90;99.90;;;;;;5008252;28;20512;-67
2022/07/22 07:47:28;;;;;;;4.00;2.63;;;21.80;99.90;;;;;;5000808;28;20477;-67
2022/07/22 07:49:57;;;;;;;3.80;2.67;;;21.70;99.90;;;;;;5003345;28;20484;-66
2022/07/22 07:52:24;;;;;;;6.07;3.07;;;21.70;99.90;;;;;;4996246;28;20502;-67
2022/07/22 07:54:50;;;;;;;3.27;2.97;;;21.60;99.90;;;;;;4999502;28;20874;-66
2022/07/22 07:57:17;;;;;;;7.17;2.47;;;21.30;99.90;;;;;;5009010;28;20529;-67
2022/07/22 07:59:44;;;;;;;3.00;2.70;;;21.10;99.90;;;;;;5010758;28;20937;-66
2022/07/22 08:02:12;;;;;;;4.50;2.70;;;21.10;99.90;;;;;;5003522;28;20863;-66
2022/07/22 08:04:39;;;;;;;4.97;3.40;;;21.10;99.90;;;;;;4994115;28;21651;-66
2022/07/22 08:07:07;;;;;;;2.77;2.50;;;20.90;99.90;;;;;;5003403;28;20464;-67
2022/07/22 08:09:35;;;;;;;3.37;3.07;;;20.50;99.90;;;;;;5003434;28;20815;-66
2022/07/22 08:12:01;;;;;;;4.00;2.33;;;20.30;99.90;;;;;;5010532;28;20518;-67
2022/07/22 08:14:28;;;;;;;2.40;2.20;;;20.30;99.90;;;;;;5009480;28;20463;-67
2022/07/22 08:16:55;;;;;;;9.20;2.80;;;20.30;99.90;;;;;;5010048;28;20470;-67
2022/07/22 08:19:23;;;;;;;2.77;2.30;;;20.40;99.90;;;;;;5012965;28;20477;-66
2022/07/22 08:21:49;;;;;;;3.60;2.30;;;20.10;99.90;;;;;;5012520;28;20489;-66
2022/07/22 08:24:16;;;;;;;6.97;3.13;;;20.10;99.90;;;;;;5009393;28;20494;-66
2022/07/22 08:26:43;;;;;;;4.57;2.37;;;20.00;99.90;;;;;;4999079;28;20462;-66
2022/07/22 08:29:10;;;;;;;4.30;2.63;;;20.00;99.90;;;;;;5007504;28;20477;-67
2022/07/22 08:31:37;;;;;;;5.10;4.17;;;19.90;99.90;;;;;;4997691;28;20569;-66
2022/07/22 08:34:05;;;;;;;4.10;2.30;;;19.90;99.90;;;;;;5008041;28;20462;-66
2022/07/22 08:36:33;;;;;;;2.53;2.33;;;19.80;99.90;;;;;;5003106;28;20468;-67
2022/07/22 08:39:00;;;;;;;4.27;2.67;;;19.90;99.90;;;;;;5002322;28;20802;-68
2022/07/22 08:41:27;;;;;;;4.70;2.30;;;19.80;99.90;;;;;;5002666;28;20580;-67
2022/07/22 08:43:54;;;;;;;4.00;2.63;;;19.80;99.90;;;;;;5002961;28;20478;-67
2022/07/22 08:46:20;;;;;;;9.73;3.70;;;19.80;99.90;;;;;;5001434;28;20584;-65
2022/07/22 08:48:47;;;;;;;4.27;2.57;;;19.80;99.90;;;;;;5001732;28;20540;-67
2022/07/22 08:51:14;;;;;;;6.67;2.70;;;19.70;99.90;;;;;;5003477;28;21030;-67
2022/07/22 08:53:42;;;;;;;3.00;2.90;;;19.60;99.90;;;;;;5001780;28;20489;-66
2022/07/22 08:56:08;;;;;;;5.40;3.13;;;19.50;99.90;;;;;;4998787;28;20465;-66
2022/07/22 08:58:35;;;;;;;5.87;3.20;;;19.50;99.90;;;;;;5004384;28;20495;-68
2022/07/22 09:01:09;;;;;;;6.57;2.63;;;19.50;99.90;;;;;;5003816;28;20500;-67
2022/07/22 09:03:46;;;;;;;6.10;3.37;;;19.60;99.90;;;;;;5002401;28;20472;-67
2022/07/22 09:06:13;;;;;;;6.30;2.47;;;19.70;99.90;;;;;;5008182;28;20476;-68
2022/07/22 09:08:53;;;;;;;3.90;2.97;;;20.00;99.90;;;;;;4999349;28;20472;-68
2022/07/22 09:11:22;;;;;;;5.53;2.37;;;20.30;99.90;;;;;;5002582;28;20577;-68
2022/07/22 09:13:49;;;;;;;3.33;2.97;;;20.40;99.90;;;;;;5006883;28;20513;-68
2022/07/22 09:16:16;;;;;;;6.23;2.60;;;20.40;99.90;;;;;;5000050;28;20478;-66
2022/07/22 09:18:47;;;;;;;3.27;2.73;;;20.20;99.90;;;;;;5007182;28;20465;-67
2022/07/22 09:21:14;;;;;;;5.43;3.10;;;20.10;99.90;;;;;;5006850;28;20582;-71
2022/07/22 09:23:42;;;;;;;6.57;3.10;;;19.90;99.90;;;;;;5003599;28;20481;-68
2022/07/22 09:26:30;;;;;;;3.20;2.83;;;20.00;99.90;;;;;;5006671;28;20971;-68
2022/07/22 09:28:58;;;;;;;4.00;2.77;;;20.20;99.90;;;;;;5001127;28;20470;-68
2022/07/22 09:31:26;;;;;;;4.97;3.17;;;20.40;99.90;;;;;;5006649;28;22141;-68
2022/07/22 09:33:53;;;;;;;3.00;2.80;;;20.50;99.90;;;;;;5008843;28;20470;-67
2022/07/22 09:36:20;;;;;;;5.80;3.10;;;20.50;99.90;;;;;;5009422;28;20511;-68
2022/07/22 09:38:47;;;;;;;4.87;3.80;;;20.40;99.90;;;;;;5001237;28;20548;-68
2022/07/22 09:41:15;;;;;;;4.53;3.40;;;20.40;99.90;;;;;;5000680;28;20494;-67
2022/07/22 09:43:42;;;;;;;2.80;2.53;;;20.30;99.90;;;;;;5009164;28;20586;-67
2022/07/22 09:46:09;;;;;;;4.07;2.73;;;20.40;99.90;;;;;;5002691;28;20491;-68
2022/07/22 09:48:37;;;;;;;3.00;2.77;;;20.60;99.90;;;;;;5005134;28;20913;-67
2022/07/22 09:51:05;;;;;;;3.20;3.00;;;20.50;99.90;;;;;;4998075;28;20490;-67
2022/07/22 09:53:33;;;;;;;3.30;3.00;;;20.40;99.90;;;;;;5003546;28;20471;-67
2022/07/22 09:56:03;;;;;;;3.30;2.50;;;20.20;99.90;;;;;;4998730;28;20455;-67
2022/07/22 09:58:31;;;;;;;3.23;2.90;;;20.20;99.90;;;;;;5001867;28;20525;-67
2022/07/22 10:01:00;;;;;;;4.27;3.03;;;20.20;99.90;;;;;;5002399;28;20504;-67
2022/07/22 10:03:28;;;;;;;2.87;2.77;;;20.30;99.90;;;;;;5002410;28;20473;-66
2022/07/22 10:05:55;;;;;;;5.07;3.30;;;20.60;99.90;;;;;;5001820;28;20549;-67
2022/07/22 10:08:22;;;;;;;4.73;2.70;;;20.70;99.90;;;;;;5004771;28;20467;-66
2022/07/22 10:10:49;;;;;;;3.63;2.40;;;;;;;;;;5000157;28;20549;-70
2022/07/22 10:13:18;;;;;;;2.87;2.30;;;;;;;;;;5001951;28;21022;-68
2022/07/22 10:15:48;;;;;;;2.77;2.50;;;;;;;;;;5019433;23;20503;-69
2022/07/22 10:18:16;;;;;;;3.90;2.60;;;;;;;;;;4979683;28;20472;-72
2022/07/22 10:20:43;;;;;;;9.60;7.77;;;;;;;;;;4975123;28;20469;-69
2022/07/22 10:23:11;;;;;;;2.97;2.53;;;;;;;;;;4972525;28;20464;-68
2022/07/22 10:25:53;;;;;;;4.40;3.23;;;21.30;99.90;;;;;;4976803;28;20502;-68
2022/07/22 10:28:26;;;;;;;4.80;2.73;;;20.80;99.90;;;;;;4958698;28;20934;-67
2022/07/22 10:31:08;;;;;;;2.97;2.57;;;20.70;99.90;;;;;;4971703;28;20480;-68
2022/07/22 10:33:37;;;;;;;5.20;2.87;;;20.70;99.90;;;;;;4969693;28;20533;-67
2022/07/22 10:36:04;;;;;;;3.33;3.03;;;20.80;99.90;;;;;;4969899;28;21225;-67
2022/07/22 10:38:32;;;;;;;3.87;2.60;;;20.70;99.90;;;;;;4962247;28;20476;-68
2022/07/22 10:41:00;;;;;;;4.77;3.07;;;20.80;99.90;;;;;;4971442;28;20488;-68
2022/07/22 10:43:28;;;;;;;2.90;2.70;;;20.90;99.90;;;;;;4958276;28;20473;-67
2022/07/22 10:45:58;;;;;;;5.93;2.70;;;21.10;99.90;;;;;;4966212;28;20486;-69
2022/07/22 10:48:44;;;;;;;2.67;2.47;;;21.00;99.90;;;;;;4967447;28;20563;-67
2022/07/22 10:51:12;;;;;;;2.53;2.33;;;20.90;99.90;;;;;;4954358;28;20482;-67
2022/07/22 10:53:45;;;;;;;3.33;3.00;;;20.90;99.90;;;;;;4970307;28;20931;-68
2022/07/22 10:56:20;;;;;;;7.90;2.30;;;20.90;99.90;;;;;;4972770;28;20486;-67
2022/07/22 10:58:59;;;;;;;3.33;2.20;;;20.90;99.90;;;;;;4959860;28;20550;-67
2022/07/22 11:01:29;;;;;;;2.40;2.20;;;20.80;99.90;;;;;;4969745;28;20473;-67
2022/07/22 11:04:07;;;;;;;2.73;2.50;;;20.80;99.90;;;;;;4966993;28;20464;-66
2022/07/22 11:06:34;;;;;;;3.07;2.87;;;20.80;99.90;;;;;;4970106;28;20555;-67
2022/07/22 11:09:02;;;;;;;2.43;2.30;;;20.90;99.90;;;;;;4964729;28;20496;-68
2022/07/22 11:11:39;;;;;;;2.70;2.50;;;21.10;99.90;;;;;;4972266;28;20469;-67
2022/07/22 11:14:13;;;;;;;4.37;2.70;;;21.20;99.90;;;;;;4971207;28;20462;-66
2022/07/22 11:16:42;;;;;;;2.30;2.20;;;21.30;99.90;;;;;;4968678;28;20501;-66
2022/07/22 11:19:09;;;;;;;4.57;1.97;;;21.50;99.90;;;;;;4970948;28;20878;-67
2022/07/22 11:21:36;;;;;;;3.80;2.10;;;21.70;99.90;;;;;;4961325;28;20458;-66
2022/07/22 11:24:04;;;;;;;2.93;2.73;;;21.80;99.90;;;;;;4958700;28;20466;-68
2022/07/22 11:26:39;;;;;;;2.80;2.60;;;22.00;99.90;;;;;;4968076;28;20495;-66
2022/07/22 11:29:06;;;;;;;2.80;2.60;;;22.10;99.90;;;;;;4965997;28;20477;-66
2022/07/22 11:31:33;;;;;;;6.10;2.70;;;22.10;99.90;;;;;;4961017;28;20478;-66
2022/07/22 11:34:10;;;;;;;2.73;2.53;;;22.30;99.90;;;;;;4965438;28;20480;-66
2022/07/22 11:36:38;;;;;;;2.53;2.30;;;22.40;99.90;;;;;;4975028;28;20933;-66
2022/07/22 11:39:06;;;;;;;2.37;2.27;;;22.50;99.90;;;;;;4964612;28;20466;-65
2022/07/22 11:41:34;;;;;;;4.13;2.40;;;22.50;99.90;;;;;;4967091;28;20827;-66
2022/07/22 11:44:01;;;;;;;2.60;2.40;;;22.50;99.90;;;;;;4967799;28;20479;-66
2022/07/22 11:46:29;;;;;;;2.83;2.70;;;22.50;99.90;;;;;;4959761;28;20499;-66
2022/07/22 11:48:58;;;;;;;2.57;2.47;;;22.20;99.90;;;;;;4970136;28;20471;-68
2022/07/22 11:51:30;;;;;;;4.50;2.50;;;22.00;99.90;;;;;;4966477;28;20810;-67
2022/07/22 11:53:57;;;;;;;3.13;2.20;;;22.00;99.90;;;;;;4966952;28;20478;-66
2022/07/22 11:56:24;;;;;;;2.87;2.63;;;21.90;99.90;;;;;;4966273;28;20493;-66
2022/07/22 11:58:54;;;;;;;6.93;2.50;;;21.90;99.90;;;;;;4961196;28;20808;-65
2022/07/22 12:01:21;;;;;;;2.10;2.10;;;22.10;99.90;;;;;;4968362;28;21080;-66
2022/07/22 12:03:49;;;;;;;7.63;2.73;;;22.30;99.90;;;;;;4966514;28;20513;-68
2022/07/22 12:06:18;;;;;;;3.60;2.90;;;22.30;99.90;;;;;;4967496;28;20494;-66
2022/07/22 12:08:49;;;;;;;2.83;2.57;;;22.40;99.90;;;;;;4967450;28;20961;-66
2022/07/22 12:11:17;;;;;;;2.00;1.90;;;22.60;99.90;;;;;;4967484;28;20985;-67
2022/07/22 12:13:45;;;;;;;98.00;37.13;;;22.80;99.90;;;;;;4960423;28;20590;-67
2022/07/22 12:16:24;;;;;;;34.93;12.77;;;22.80;99.90;;;;;;4971842;28;20503;-67
2022/07/22 12:18:53;;;;;;;2.97;2.40;;;22.90;99.90;;;;;;4957180;28;20462;-67
2022/07/22 12:21:21;;;;;;;17.90;7.27;;;22.80;99.90;;;;;;4972141;28;20885;-67
2022/07/22 12:23:53;;;;;;;8.73;3.40;;;22.80;99.90;;;;;;4959189;28;20535;-66
2022/07/22 12:26:20;;;;;;;5.87;4.73;;;22.60;99.90;;;;;;4966678;28;20494;-66
2022/07/22 12:28:46;;;;;;;4.53;3.40;;;22.50;99.90;;;;;;4973582;28;20525;-68
2022/07/22 12:31:13;;;;;;;5.53;2.70;;;22.70;99.90;;;;;;4974837;28;20502;-67
2022/07/22 12:33:48;;;;;;;5.83;2.90;;;22.70;99.90;;;;;;4966676;28;20475;-66
2022/07/22 12:36:15;;;;;;;2.53;2.33;;;22.80;99.90;;;;;;4966727;28;21027;-68
2022/07/22 12:38:41;;;;;;;3.37;2.00;;;22.90;99.90;;;;;;4969493;28;20590;-67
2022/07/22 12:41:29;;;;;;;2.00;1.90;;;22.90;99.90;;;;;;4973201;28;20842;-67
2022/07/22 12:43:56;;;;;;;4.80;2.63;;;22.90;99.90;;;;;;4959563;28;20570;-67
2022/07/22 12:46:23;;;;;;;2.27;2.17;;;22.80;99.90;;;;;;4966693;28;20500;-71
2022/07/22 12:48:52;;;;;;;2.20;2.10;;;22.90;99.90;;;;;;4972137;28;20478;-68
2022/07/22 12:51:19;;;;;;;2.20;1.97;;;23.00;99.90;;;;;;4966204;28;20490;-66
2022/07/22 12:53:46;;;;;;;2.20;2.10;;;23.00;99.90;;;;;;4971701;28;20478;-66
2022/07/22 12:56:12;;;;;;;2.60;2.33;;;22.70;99.90;;;;;;4971560;28;20486;-66
2022/07/22 12:58:41;;;;;;;2.90;1.97;;;22.60;99.90;;;;;;4968566;28;20537;-67
2022/07/22 13:01:08;;;;;;;2.30;2.00;;;22.50;99.90;;;;;;4970520;28;20509;-66
2022/07/22 13:03:35;;;;;;;2.40;2.30;;;22.60;99.90;;;;;;4971828;28;20478;-66
2022/07/22 13:06:04;;;;;;;2.60;2.03;;;22.70;99.90;;;;;;4968935;28;20492;-66
2022/07/22 13:08:31;;;;;;;2.20;2.10;;;22.60;99.90;;;;;;4974166;28;20496;-65
2022/07/22 13:10:58;;;;;;;5.77;2.40;;;22.60;99.90;;;;;;4970633;28;20471;-66
2022/07/22 13:13:25;;;;;;;2.13;2.03;;;22.60;99.90;;;;;;4971525;28;20947;-66
2022/07/22 13:15:53;;;;;;;2.20;1.97;;;22.70;99.90;;;;;;4971608;28;20502;-66
2022/07/22 13:18:19;;;;;;;2.70;2.10;;;22.60;99.90;;;;;;4965081;28;20474;-66
2022/07/22 13:20:47;;;;;;;2.43;2.27;;;;;;;;;;4974090;28;20529;-66
2022/07/22 13:23:13;;;;;;;2.30;2.13;;;22.60;99.90;;;;;;4969856;28;20565;-66
2022/07/22 13:25:40;;;;;;;4.00;2.37;;;22.50;99.90;;;;;;4970661;28;21039;-66
2022/07/22 13:28:07;;;;;;;2.53;2.30;;;22.60;99.90;;;;;;4971802;28;20470;-66
2022/07/22 13:30:33;;;;;;;2.92;2.10;;;22.50;99.90;;;;;;4971057;28;20466;-66
2022/07/22 13:33:01;;;;;;;2.90;2.03;;;22.50;99.90;;;;;;4959057;28;20212;-67
2022/07/22 13:35:29;;;;;;;4.00;2.10;;;22.60;99.90;;;;;;4955761;28;20486;-67
2022/07/22 13:37:56;;;;;;;2.20;2.17;;;22.50;99.90;;;;;;4959173;28;20470;-66
2022/07/22 13:40:23;;;;;;;2.53;2.40;;;22.40;99.90;;;;;;4973487;28;20776;-66
2022/07/22 13:42:49;;;;;;;2.50;2.33;;;22.40;99.90;;;;;;4973033;28;20544;-66
2022/07/22 13:45:17;;;;;;;2.90;2.70;;;22.50;99.90;;;;;;4973236;28;20633;-66
2022/07/22 13:47:43;;;;;;;2.30;2.10;;;22.50;99.90;;;;;;4971900;28;20624;-66
2022/07/22 13:50:11;;;;;;;2.50;2.30;;;22.70;99.90;;;;;;4966197;28;20546;-66
2022/07/22 13:52:38;;;;;;;3.80;2.77;;;22.80;99.90;;;;;;4972918;28;21135;-66
2022/07/22 13:55:06;;;;;;;2.00;2.00;;;22.80;99.90;;;;;;4971351;28;20474;-67
2022/07/22 13:57:33;;;;;;;4.20;2.30;;;22.90;99.90;;;;;;4972064;28;20708;-65
2022/07/22 14:00:00;;;;;;;2.17;2.07;;;22.80;99.90;;;;;;4973267;28;20461;-66
2022/07/22 14:02:26;;;;;;;6.07;2.40;;;22.90;99.90;;;;;;4971468;28;20468;-66
2022/07/22 14:04:53;;;;;;;2.70;2.50;;;22.90;99.90;;;;;;4967563;28;20592;-67
2022/07/22 14:07:21;;;;;;;3.07;2.70;;;23.10;99.90;;;;;;4956711;28;20579;-66
2022/07/22 14:09:48;;;;;;;2.67;2.47;;;23.30;99.90;;;;;;4963632;28;20478;-66
2022/07/22 14:12:14;;;;;;;2.40;2.20;;;23.50;99.90;;;;;;4971090;28;20805;-67
2022/07/22 14:14:41;;;;;;;1.80;1.80;;;23.50;99.90;;;;;;4954463;28;20564;-67
2022/07/22 14:17:08;;;;;;;2.10;1.90;;;23.50;99.90;;;;;;4972700;28;20490;-67
2022/07/22 14:19:34;;;;;;;5.40;2.03;;;23.50;99.90;;;;;;4954413;28;20471;-67
2022/07/22 14:22:01;;;;;;;2.33;2.20;;;23.40;99.90;;;;;;4953959;29;20466;-67
2022/07/22 14:24:29;;;;;;;2.47;2.27;;;23.60;99.90;;;;;;4953315;29;20466;-68
2022/07/22 14:26:56;;;;;;;2.70;1.83;;;23.70;99.90;;;;;;4955413;28;21047;-67
2022/07/22 14:29:23;;;;;;;2.43;2.27;;;23.70;99.90;;;;;;4969501;28;21006;-67
2022/07/22 14:31:50;;;;;;;2.50;2.30;;;23.60;99.90;;;;;;4970830;28;20843;-67
2022/07/22 14:34:17;;;;;;;2.63;2.20;;;23.70;99.90;;;;;;4971594;28;20466;-67
2022/07/22 14:36:43;;;;;;;4.00;1.67;;;23.80;99.90;;;;;;4971736;28;20495;-66
2022/07/22 14:39:10;;;;;;;1.77;1.70;;;23.90;99.90;;;;;;4966036;28;20478;-67
2022/07/22 14:41:38;;;;;;;2.17;2.07;;;23.90;99.90;;;;;;4965509;28;20478;-67
2022/07/22 14:44:05;;;;;;;1.70;1.60;;;23.90;99.90;;;;;;4968838;28;21109;-67
2022/07/22 14:46:32;;;;;;;2.30;2.10;;;24.00;99.90;;;;;;4961816;28;21166;-66
2022/07/22 14:48:58;;;;;;;2.70;2.13;;;24.10;99.90;;;;;;4968668;28;20484;-67
2022/07/22 14:51:25;;;;;;;2.27;2.27;;;24.00;99.90;;;;;;4963531;28;20824;-66
2022/07/22 14:53:52;;;;;;;2.97;1.90;;;23.80;99.90;;;;;;4970933;28;20466;-67
2022/07/22 14:56:19;;;;;;;4.97;2.60;;;23.70;99.90;;;;;;4966517;28;20487;-67
2022/07/22 14:58:47;;;;;;;2.83;1.83;;;23.60;99.90;;;;;;4970163;28;20475;-66
2022/07/22 15:01:13;;;;;;;2.93;2.40;;;23.60;99.90;;;;;;4966407;28;20464;-67
2022/07/22 15:03:40;;;;;;;2.73;2.30;;;23.40;99.90;;;;;;4969961;28;20478;-66
2022/07/22 15:06:07;;;;;;;2.37;2.10;;;23.10;99.90;;;;;;4963204;28;20514;-67
2022/07/22 15:08:34;;;;;;;1.93;1.83;;;23.00;99.90;;;;;;4969904;28;20958;-67
2022/07/22 15:11:00;;;;;;;3.13;2.30;;;22.80;99.90;;;;;;4958086;28;20471;-66
2022/07/22 15:13:27;;;;;;;3.20;2.60;;;22.80;99.90;;;;;;4968526;28;20494;-67
2022/07/22 15:15:56;;;;;;;3.37;2.57;;;22.90;99.90;;;;;;4971604;28;20571;-66
2022/07/22 15:18:23;;;;;;;2.37;2.17;;;22.90;99.90;;;;;;4969301;28;20532;-67
2022/07/22 15:20:50;;;;;;;2.87;2.77;;;23.10;99.90;;;;;;4967048;28;20474;-68
2022/07/22 15:23:16;;;;;;;2.90;2.60;;;23.10;99.90;;;;;;4969589;28;20470;-67
2022/07/22 15:25:43;;;;;;;2.73;2.50;;;23.10;99.90;;;;;;4961570;28;20493;-69
2022/07/22 15:28:10;;;;;;;2.40;2.20;;;23.00;99.90;;;;;;4970154;28;20487;-67
2022/07/22 15:30:36;;;;;;;2.00;1.90;;;23.00;99.90;;;;;;4970919;28;21025;-66
2022/07/22 15:33:04;;;;;;;4.10;2.50;;;23.00;99.90;;;;;;4961860;28;20577;-66
2022/07/22 15:35:31;;;;;;;2.43;2.30;;;23.10;99.90;;;;;;4962410;28;20562;-66
2022/07/22 15:37:58;;;;;;;2.77;2.40;;;23.10;99.90;;;;;;4970407;28;20475;-67
2022/07/22 15:40:25;;;;;;;2.33;2.23;;;23.10;99.90;;;;;;4971537;28;20512;-66
2022/07/22 15:42:52;;;;;;;2.87;2.60;;;22.90;99.90;;;;;;4968698;28;20470;-67
2022/07/22 15:45:19;;;;;;;2.40;2.30;;;22.90;99.90;;;;;;4962724;28;21054;-67
2022/07/22 15:47:46;;;;;;;2.80;2.50;;;22.70;99.90;;;;;;4960067;28;20489;-67
2022/07/22 15:50:14;;;;;;;2.87;2.50;;;22.60;99.90;;;;;;4961656;28;20481;-67
2022/07/22 15:52:41;;;;;;;5.07;3.20;;;22.50;99.90;;;;;;4965488;28;20466;-67
2022/07/22 15:55:08;;;;;;;4.17;2.80;;;22.40;99.90;;;;;;4969924;28;20529;-67
2022/07/22 16:00:20;;;;;;;2.43;2.30;;;;;;;;;;4951972;28;20445;-66
2022/07/22 16:02:47;;;;;;;3.00;2.90;;;;;;;;;;4966648;28;20469;-67
2022/07/22 16:05:15;;;;;;;2.43;2.43;;;21.70;99.90;;;;;;4961643;28;20550;-66
2022/07/22 16:07:42;;;;;;;5.03;2.83;;;;;;;;;;4965105;28;20827;-67
2022/07/22 16:10:09;;;;;;;3.00;2.87;;;;;;;;;;4956148;28;20466;-67
2022/07/22 16:12:37;;;;;;;3.67;3.00;;;;;;;;;;4967815;28;20496;-68
2022/07/22 16:15:04;;;;;;;4.97;4.50;;;;;;;;;;4968563;28;20477;-66
2022/07/22 16:17:31;;;;;;;2.77;2.67;;;;;;;;;;4970670;28;20948;-68
2022/07/22 16:19:58;;;;;;;3.03;2.77;;;;;;;;;;4972477;28;20577;-67
2022/07/22 16:22:26;;;;;;;3.30;3.07;;;;;;;;;;4965644;28;20824;-67
2022/07/22 16:24:53;;;;;;;3.10;2.83;;;;;;;;;;4970636;28;20469;-67
2022/07/22 16:27:21;;;;;;;5.70;4.13;;;;;;;;;;4961102;28;20492;-67
2022/07/22 16:29:48;;;;;;;2.50;2.40;;;;;;;;;;4964513;28;20524;-66
2022/07/22 16:32:15;;;;;;;2.87;2.50;;;;;;;;;;4964375;28;20851;-69
2022/07/22 16:34:42;;;;;;;2.87;2.60;;;;;;;;;;4954741;29;20473;-66
2022/07/22 16:37:09;;;;;;;3.53;2.80;;;;;;;;;;4970428;28;20645;-68
2022/07/22 16:39:37;;;;;;;3.30;2.60;;;;;;;;;;4968608;28;20479;-66
2022/07/22 16:42:04;;;;;;;2.50;2.40;;;;;;;;;;4969594;28;20461;-68
2022/07/22 16:44:31;;;;;;;2.43;2.30;;;;;;;;;;4972232;28;20524;-67
2022/07/22 16:46:58;;;;;;;4.73;2.57;;;;;;;;;;4971989;28;20521;-67
2022/07/22 16:49:26;;;;;;;2.80;2.60;;;;;;;;;;4963071;28;20479;-68
2022/07/22 16:51:53;;;;;;;2.53;2.47;;;;;;;;;;4966508;28;20482;-68
2022/07/22 16:54:19;;;;;;;3.63;2.80;;;22.10;99.90;;;;;;4971030;28;20838;-67
2022/07/22 16:56:48;;;;;;;3.53;3.20;;;;;;;;;;4970561;28;20486;-67
2022/07/22 16:59:15;;;;;;;3.13;2.83;;;;;;;;;;4963607;28;20472;-69
2022/07/22 17:01:42;;;;;;;2.63;2.40;;;;;;;;;;4970935;28;20934;-68
2022/07/22 17:04:08;;;;;;;2.67;2.67;;;21.80;99.90;;;;;;4972427;28;20527;-68